sensor_id;sensor_type;location;lat;lon;timestamp;P1;P2;P0
27143;PMS1003;14672;50.250;8.312;2023-01-25T00:00:27;28.50;27.50;14.00
27143;PMS1003;14672;50.250;8.312;2023-01-25T00:02:53;26.50;24.50;11.50
27143;PMS1003;14672;50.250;8.312;2023-01-25T00:05:19;26.00;24.00;13.33
27143;PMS1003;14672;50.250;8.312;2023-01-25T00:07:45;35.33;24.00;9.33
27143;PMS1003;14672;50.250;8.312;2023-01-25T00:10:11;36.00;32.00;14.00
27143;PMS1003;14672;50.250;8.312;2023-01-25T00:12:36;30.67;29.33;14.00
27143;PMS1003;14672;50.250;8.312;2023-01-25T00:15:02;36.00;28.00;10.67
27143;PMS1003;14672;50.250;8.312;2023-01-25T00:17:28;28.00;24.00;12.50
27143;PMS1003;14672;50.250;8.312;2023-01-25T00:19:54;30.67;28.00;11.33
27143;PMS1003;14672;50.250;8.312;2023-01-25T00:22:20;26.00;25.33;12.00
27143;PMS1003;14672;50.250;8.312;2023-01-25T00:24:46;30.67;24.00;11.33
27143;PMS1003;14672;50.250;8.312;2023-01-25T00:27:11;27.33;26.00;10.00
27143;PMS1003;14672;50.250;8.312;2023-01-25T00:29:37;28.00;28.00;10.67
27143;PMS1003;14672;50.250;8.312;2023-01-25T00:32:25;30.67;27.33;10.00
27143;PMS1003;14672;50.250;8.312;2023-01-25T00:35:22;30.50;24.00;9.00
27143;PMS1003;14672;50.250;8.312;2023-01-25T00:37:48;28.67;24.00;10.00
27143;PMS1003;14672;50.250;8.312;2023-01-25T00:40:17;27.00;21.50;8.00
27143;PMS1003;14672;50.250;8.312;2023-01-25T00:42:43;26.67;24.00;10.67
27143;PMS1003;14672;50.250;8.312;2023-01-25T00:45:10;25.33;22.00;10.00
27143;PMS1003;14672;50.250;8.312;2023-01-25T00:47:36;24.00;23.00;10.50
27143;PMS1003;14672;50.250;8.312;2023-01-25T00:50:03;23.00;22.00;11.50
27143;PMS1003;14672;50.250;8.312;2023-01-25T00:52:31;22.00;20.50;10.00
27143;PMS1003;14672;50.250;8.312;2023-01-25T00:54:57;25.00;20.00;8.50
27143;PMS1003;14672;50.250;8.312;2023-01-25T00:57:23;20.00;18.00;8.00
27143;PMS1003;14672;50.250;8.312;2023-01-25T00:59:49;23.33;21.33;9.33
27143;PMS1003;14672;50.250;8.312;2023-01-25T01:02:15;31.33;24.00;8.67
27143;PMS1003;14672;50.250;8.312;2023-01-25T01:04:40;25.33;22.67;10.00
27143;PMS1003;14672;50.250;8.312;2023-01-25T01:07:06;28.00;20.00;9.33
27143;PMS1003;14672;50.250;8.312;2023-01-25T01:09:32;19.33;17.33;7.33
27143;PMS1003;14672;50.250;8.312;2023-01-25T01:11:58;24.67;21.33;10.00
27143;PMS1003;14672;50.250;8.312;2023-01-25T01:14:23;26.67;20.00;8.00
27143;PMS1003;14672;50.250;8.312;2023-01-25T01:16:49;32.67;25.33;9.33
27143;PMS1003;14672;50.250;8.312;2023-01-25T01:19:15;24.67;23.33;10.00
27143;PMS1003;14672;50.250;8.312;2023-01-25T01:21:41;31.33;28.00;10.00
27143;PMS1003;14672;50.250;8.312;2023-01-25T01:24:08;22.67;21.33;8.00
27143;PMS1003;14672;50.250;8.312;2023-01-25T01:26:35;21.50;21.50;10.00
27143;PMS1003;14672;50.250;8.312;2023-01-25T01:29:01;20.00;16.00;6.00
27143;PMS1003;14672;50.250;8.312;2023-01-25T01:31:26;22.67;20.00;9.33
27143;PMS1003;14672;50.250;8.312;2023-01-25T01:33:53;21.33;20.00;8.00
27143;PMS1003;14672;50.250;8.312;2023-01-25T01:36:22;27.50;22.00;8.00
27143;PMS1003;14672;50.250;8.312;2023-01-25T01:38:50;25.50;22.00;8.50
27143;PMS1003;14672;50.250;8.312;2023-01-25T01:41:16;24.00;22.00;9.33
27143;PMS1003;14672;50.250;8.312;2023-01-25T01:43:43;29.50;24.50;9.00
27143;PMS1003;14672;50.250;8.312;2023-01-25T01:46:19;17.50;17.50;9.00
27143;PMS1003;14672;50.250;8.312;2023-01-25T01:51:53;24.50;21.50;8.50
27143;PMS1003;14672;50.250;8.312;2023-01-25T01:54:33;22.50;20.50;9.50
27143;PMS1003;14672;50.250;8.312;2023-01-25T01:57:05;25.00;22.00;9.00
27143;PMS1003;14672;50.250;8.312;2023-01-25T01:59:50;30.00;24.00;12.00
27143;PMS1003;14672;50.250;8.312;2023-01-25T02:02:25;23.50;20.50;10.00
27143;PMS1003;14672;50.250;8.312;2023-01-25T02:04:52;24.00;19.50;6.00
27143;PMS1003;14672;50.250;8.312;2023-01-25T02:07:27;25.00;20.00;9.00
27143;PMS1003;14672;50.250;8.312;2023-01-25T02:10:00;21.00;18.00;8.00
27143;PMS1003;14672;50.250;8.312;2023-01-25T02:12:30;24.00;21.00;7.00
27143;PMS1003;14672;50.250;8.312;2023-01-25T02:14:57;18.00;18.00;8.00
27143;PMS1003;14672;50.250;8.312;2023-01-25T02:17:24;23.50;20.00;8.00
27143;PMS1003;14672;50.250;8.312;2023-01-25T02:25:43;19.00;17.50;7.50
27143;PMS1003;14672;50.250;8.312;2023-01-25T02:28:20;21.00;21.00;10.00
27143;PMS1003;14672;50.250;8.312;2023-01-25T02:30:54;19.50;19.00;8.50
27143;PMS1003;14672;50.250;8.312;2023-01-25T02:33:23;25.33;22.67;10.67
27143;PMS1003;14672;50.250;8.312;2023-01-25T02:38:32;36.50;35.00;14.50
27143;PMS1003;14672;50.250;8.312;2023-01-25T02:41:09;59.50;54.00;29.00
27143;PMS1003;14672;50.250;8.312;2023-01-25T02:43:44;52.50;48.50;27.00
27143;PMS1003;14672;50.250;8.312;2023-01-25T02:46:14;66.00;60.00;30.00
27143;PMS1003;14672;50.250;8.312;2023-01-25T02:48:53;60.00;52.00;24.50
27143;PMS1003;14672;50.250;8.312;2023-01-25T02:51:21;38.00;35.50;19.00
27143;PMS1003;14672;50.250;8.312;2023-01-25T02:53:49;36.00;34.00;14.50
27143;PMS1003;14672;50.250;8.312;2023-01-25T02:56:16;41.50;37.50;20.00
27143;PMS1003;14672;50.250;8.312;2023-01-25T02:58:42;102.80;82.00;48.00
27143;PMS1003;14672;50.250;8.312;2023-01-25T03:01:09;62.00;50.00;26.00
27143;PMS1003;14672;50.250;8.312;2023-01-25T03:03:36;34.50;30.50;14.00
27143;PMS1003;14672;50.250;8.312;2023-01-25T03:06:02;38.00;34.67;15.33
27143;PMS1003;14672;50.250;8.312;2023-01-25T03:08:29;86.40;70.00;38.00
27143;PMS1003;14672;50.250;8.312;2023-01-25T03:10:56;49.33;45.33;22.00
27143;PMS1003;14672;50.250;8.312;2023-01-25T03:13:23;26.50;25.50;10.50
27143;PMS1003;14672;50.250;8.312;2023-01-25T03:15:49;43.00;32.00;15.00
27143;PMS1003;14672;50.250;8.312;2023-01-25T03:18:16;46.50;34.50;15.50
27143;PMS1003;14672;50.250;8.312;2023-01-25T03:20:42;40.00;35.00;19.00
27143;PMS1003;14672;50.250;8.312;2023-01-25T03:23:08;37.33;30.67;14.00
27143;PMS1003;14672;50.250;8.312;2023-01-25T03:25:33;38.00;30.00;12.00
27143;PMS1003;14672;50.250;8.312;2023-01-25T03:27:59;42.67;36.00;17.33
27143;PMS1003;14672;50.250;8.312;2023-01-25T03:30:25;24.00;22.00;10.00
27143;PMS1003;14672;50.250;8.312;2023-01-25T03:32:51;28.00;24.00;10.00
27143;PMS1003;14672;50.250;8.312;2023-01-25T03:35:17;28.00;26.50;12.00
27143;PMS1003;14672;50.250;8.312;2023-01-25T03:37:43;26.50;25.50;10.50
27143;PMS1003;14672;50.250;8.312;2023-01-25T03:40:09;30.67;28.67;10.00
27143;PMS1003;14672;50.250;8.312;2023-01-25T03:42:35;27.50;25.00;12.00
27143;PMS1003;14672;50.250;8.312;2023-01-25T03:45:01;30.67;27.33;10.00
27143;PMS1003;14672;50.250;8.312;2023-01-25T03:47:28;34.50;24.00;8.50
27143;PMS1003;14672;50.250;8.312;2023-01-25T03:49:53;29.00;24.00;10.00
27143;PMS1003;14672;50.250;8.312;2023-01-25T03:52:19;25.33;22.67;10.00
27143;PMS1003;14672;50.250;8.312;2023-01-25T03:54:45;26.67;24.00;10.00
27143;PMS1003;14672;50.250;8.312;2023-01-25T03:57:11;27.33;24.00;10.00
27143;PMS1003;14672;50.250;8.312;2023-01-25T03:59:37;26.67;24.00;10.00
27143;PMS1003;14672;50.250;8.312;2023-01-25T04:02:02;31.33;30.00;8.67
27143;PMS1003;14672;50.250;8.312;2023-01-25T04:04:28;27.33;24.00;12.00
27143;PMS1003;14672;50.250;8.312;2023-01-25T04:06:54;30.00;26.00;9.33
27143;PMS1003;14672;50.250;8.312;2023-01-25T04:09:19;34.67;26.00;9.33
27143;PMS1003;14672;50.250;8.312;2023-01-25T04:11:47;30.00;26.67;10.00
27143;PMS1003;14672;50.250;8.312;2023-01-25T04:14:15;31.00;27.50;14.00
27143;PMS1003;14672;50.250;8.312;2023-01-25T04:16:41;25.50;24.00;10.00
27143;PMS1003;14672;50.250;8.312;2023-01-25T04:19:07;31.50;28.00;11.50
27143;PMS1003;14672;50.250;8.312;2023-01-25T04:21:32;26.00;22.00;9.33
27143;PMS1003;14672;50.250;8.312;2023-01-25T04:23:58;26.67;22.00;9.33
27143;PMS1003;14672;50.250;8.312;2023-01-25T04:26:24;35.33;27.33;14.00
27143;PMS1003;14672;50.250;8.312;2023-01-25T04:28:50;29.33;27.33;12.00
27143;PMS1003;14672;50.250;8.312;2023-01-25T04:31:15;22.67;21.33;10.00
27143;PMS1003;14672;50.250;8.312;2023-01-25T04:33:41;30.67;26.00;8.67
27143;PMS1003;14672;50.250;8.312;2023-01-25T04:36:07;26.00;22.00;8.67
27143;PMS1003;14672;50.250;8.312;2023-01-25T04:38:33;25.50;24.50;12.00
27143;PMS1003;14672;50.250;8.312;2023-01-25T04:40:59;32.00;27.00;10.50
27143;PMS1003;14672;50.250;8.312;2023-01-25T04:43:24;26.00;23.33;12.00
27143;PMS1003;14672;50.250;8.312;2023-01-25T04:45:50;29.33;24.67;10.00
27143;PMS1003;14672;50.250;8.312;2023-01-25T04:48:16;32.00;26.00;13.33
27143;PMS1003;14672;50.250;8.312;2023-01-25T04:50:42;33.50;23.50;12.00
27143;PMS1003;14672;50.250;8.312;2023-01-25T04:53:10;31.50;26.50;12.00
27143;PMS1003;14672;50.250;8.312;2023-01-25T04:55:37;30.50;26.50;11.50
27143;PMS1003;14672;50.250;8.312;2023-01-25T04:58:03;35.50;31.00;12.50
27143;PMS1003;14672;50.250;8.312;2023-01-25T05:00:29;34.00;26.00;10.00
27143;PMS1003;14672;50.250;8.312;2023-01-25T05:02:56;29.00;26.00;11.50
27143;PMS1003;14672;50.250;8.312;2023-01-25T05:05:22;32.67;28.00;12.00
27143;PMS1003;14672;50.250;8.312;2023-01-25T05:07:48;28.00;26.67;12.00
27143;PMS1003;14672;50.250;8.312;2023-01-25T05:10:13;26.67;22.00;10.00
27143;PMS1003;14672;50.250;8.312;2023-01-25T05:12:39;31.33;26.00;10.00
27143;PMS1003;14672;50.250;8.312;2023-01-25T05:15:05;28.67;26.67;14.67
27143;PMS1003;14672;50.250;8.312;2023-01-25T05:17:32;30.00;25.50;10.00
27143;PMS1003;14672;50.250;8.312;2023-01-25T05:19:57;32.00;23.33;8.00
27143;PMS1003;14672;50.250;8.312;2023-01-25T05:22:23;30.00;27.33;10.67
27143;PMS1003;14672;50.250;8.312;2023-01-25T05:24:49;34.00;31.33;14.00
27143;PMS1003;14672;50.250;8.312;2023-01-25T05:27:16;36.67;33.33;16.00
27143;PMS1003;14672;50.250;8.312;2023-01-25T05:29:44;34.00;31.00;12.50
27143;PMS1003;14672;50.250;8.312;2023-01-25T05:32:14;28.50;27.00;12.00
27143;PMS1003;14672;50.250;8.312;2023-01-25T05:34:46;29.50;25.50;11.50
27143;PMS1003;14672;50.250;8.312;2023-01-25T05:37:13;29.50;24.50;8.00
27143;PMS1003;14672;50.250;8.312;2023-01-25T05:39:43;28.50;22.00;8.00
27143;PMS1003;14672;50.250;8.312;2023-01-25T05:42:10;30.00;26.50;11.00
27143;PMS1003;14672;50.250;8.312;2023-01-25T05:44:38;28.00;22.50;9.50
27143;PMS1003;14672;50.250;8.312;2023-01-25T05:47:04;23.50;20.00;11.00
27143;PMS1003;14672;50.250;8.312;2023-01-25T05:49:30;22.00;21.00;9.00
27143;PMS1003;14672;50.250;8.312;2023-01-25T05:51:56;26.67;22.67;12.00
27143;PMS1003;14672;50.250;8.312;2023-01-25T05:54:22;34.67;30.00;13.33
27143;PMS1003;14672;50.250;8.312;2023-01-25T05:56:48;30.00;30.00;14.67
27143;PMS1003;14672;50.250;8.312;2023-01-25T05:59:14;26.50;24.00;10.50
27143;PMS1003;14672;50.250;8.312;2023-01-25T06:01:41;25.00;24.00;10.00
27143;PMS1003;14672;50.250;8.312;2023-01-25T06:04:08;27.50;24.00;8.00
27143;PMS1003;14672;50.250;8.312;2023-01-25T06:06:39;32.00;27.00;12.00
27143;PMS1003;14672;50.250;8.312;2023-01-25T06:09:05;33.50;24.00;12.00
27143;PMS1003;14672;50.250;8.312;2023-01-25T06:11:31;28.67;28.00;16.00
27143;PMS1003;14672;50.250;8.312;2023-01-25T06:13:57;26.67;22.67;12.00
27143;PMS1003;14672;50.250;8.312;2023-01-25T06:16:23;29.33;26.67;10.00
27143;PMS1003;14672;50.250;8.312;2023-01-25T06:18:49;28.00;28.00;14.00
27143;PMS1003;14672;50.250;8.312;2023-01-25T06:21:14;33.33;32.00;14.00
27143;PMS1003;14672;50.250;8.312;2023-01-25T06:23:40;31.33;30.67;14.67
27143;PMS1003;14672;50.250;8.312;2023-01-25T06:26:10;29.33;28.67;15.33
27143;PMS1003;14672;50.250;8.312;2023-01-25T06:28:38;24.50;22.50;10.00
27143;PMS1003;14672;50.250;8.312;2023-01-25T06:31:09;24.00;22.00;10.00
27143;PMS1003;14672;50.250;8.312;2023-01-25T06:33:41;26.00;24.50;10.00
27143;PMS1003;14672;50.250;8.312;2023-01-25T06:36:12;21.50;21.50;10.00
27143;PMS1003;14672;50.250;8.312;2023-01-25T06:38:40;29.00;25.50;12.00
27143;PMS1003;14672;50.250;8.312;2023-01-25T06:41:07;23.50;22.50;10.00
27143;PMS1003;14672;50.250;8.312;2023-01-25T06:43:37;29.50;26.50;10.00
27143;PMS1003;14672;50.250;8.312;2023-01-25T06:46:04;29.00;25.50;13.00
27143;PMS1003;14672;50.250;8.312;2023-01-25T06:48:33;34.00;31.50;14.50
27143;PMS1003;14672;50.250;8.312;2023-01-25T06:51:00;23.50;21.00;9.50
27143;PMS1003;14672;50.250;8.312;2023-01-25T06:53:32;31.50;31.00;10.00
27143;PMS1003;14672;50.250;8.312;2023-01-25T06:58:29;30.50;25.50;12.00
27143;PMS1003;14672;50.250;8.312;2023-01-25T07:01:00;34.50;32.50;13.50
27143;PMS1003;14672;50.250;8.312;2023-01-25T07:03:29;23.00;22.00;11.00
27143;PMS1003;14672;50.250;8.312;2023-01-25T07:06:00;22.50;21.00;9.50
27143;PMS1003;14672;50.250;8.312;2023-01-25T07:08:31;23.00;22.00;10.50
27143;PMS1003;14672;50.250;8.312;2023-01-25T07:10:59;19.00;16.00;7.00
27143;PMS1003;14672;50.250;8.312;2023-01-25T07:13:28;24.00;23.00;8.00
27143;PMS1003;14672;50.250;8.312;2023-01-25T07:15:57;20.00;18.50;10.00
27143;PMS1003;14672;50.250;8.312;2023-01-25T07:18:30;23.00;22.50;9.50
27143;PMS1003;14672;50.250;8.312;2023-01-25T07:21:03;22.00;21.50;9.00
27143;PMS1003;14672;50.250;8.312;2023-01-25T07:23:50;26.50;25.50;12.00
27143;PMS1003;14672;50.250;8.312;2023-01-25T07:26:22;39.00;34.50;16.00
27143;PMS1003;14672;50.250;8.312;2023-01-25T07:28:49;29.00;27.50;11.00
27143;PMS1003;14672;50.250;8.312;2023-01-25T07:31:17;27.50;20.00;9.50
27143;PMS1003;14672;50.250;8.312;2023-01-25T07:33:47;23.50;18.00;7.00
27143;PMS1003;14672;50.250;8.312;2023-01-25T07:36:14;18.00;16.00;8.00
27143;PMS1003;14672;50.250;8.312;2023-01-25T07:38:40;20.50;19.00;8.00
27143;PMS1003;14672;50.250;8.312;2023-01-25T07:41:06;21.33;18.00;7.33
27143;PMS1003;14672;50.250;8.312;2023-01-25T07:43:32;17.33;15.33;6.00
27143;PMS1003;14672;50.250;8.312;2023-01-25T07:46:01;28.00;22.00;8.00
27143;PMS1003;14672;50.250;8.312;2023-01-25T07:48:31;21.00;20.50;7.50
27143;PMS1003;14672;50.250;8.312;2023-01-25T07:50:58;35.00;30.00;13.00
27143;PMS1003;14672;50.250;8.312;2023-01-25T07:53:44;46.00;39.00;20.00
27143;PMS1003;14672;50.250;8.312;2023-01-25T07:56:11;28.50;24.00;9.00
27143;PMS1003;14672;50.250;8.312;2023-01-25T07:58:37;20.67;19.33;8.00
27143;PMS1003;14672;50.250;8.312;2023-01-25T08:01:04;19.50;17.00;7.50
27143;PMS1003;14672;50.250;8.312;2023-01-25T08:03:35;22.50;22.00;8.00
27143;PMS1003;14672;50.250;8.312;2023-01-25T08:06:01;23.00;20.50;8.50
27143;PMS1003;14672;50.250;8.312;2023-01-25T08:08:31;23.50;23.00;8.00
27143;PMS1003;14672;50.250;8.312;2023-01-25T08:13:37;29.00;24.00;12.00
27143;PMS1003;14672;50.250;8.312;2023-01-25T08:16:04;58.00;55.00;28.00
27143;PMS1003;14672;50.250;8.312;2023-01-25T08:18:30;34.00;27.00;12.50
27143;PMS1003;14672;50.250;8.312;2023-01-25T08:20:57;31.50;28.50;12.50
27143;PMS1003;14672;50.250;8.312;2023-01-25T08:23:24;35.00;27.50;12.50
27143;PMS1003;14672;50.250;8.312;2023-01-25T08:25:50;23.50;19.50;9.00
27143;PMS1003;14672;50.250;8.312;2023-01-25T08:28:16;23.00;20.00;8.00
27143;PMS1003;14672;50.250;8.312;2023-01-25T08:30:41;20.00;17.33;6.00
27143;PMS1003;14672;50.250;8.312;2023-01-25T08:33:07;24.00;20.67;6.67
27143;PMS1003;14672;50.250;8.312;2023-01-25T08:35:33;20.00;20.00;6.67
27143;PMS1003;14672;50.250;8.312;2023-01-25T08:38:02;18.00;16.00;5.50
27143;PMS1003;14672;50.250;8.312;2023-01-25T08:40:28;18.50;17.00;6.00
27143;PMS1003;14672;50.250;8.312;2023-01-25T08:42:54;18.00;14.00;4.67
27143;PMS1003;14672;50.250;8.312;2023-01-25T08:45:20;20.00;16.00;8.00
27143;PMS1003;14672;50.250;8.312;2023-01-25T08:47:45;20.67;18.00;6.00
27143;PMS1003;14672;50.250;8.312;2023-01-25T08:50:11;18.67;18.00;6.00
27143;PMS1003;14672;50.250;8.312;2023-01-25T08:52:37;16.00;15.33;6.00
27143;PMS1003;14672;50.250;8.312;2023-01-25T08:55:03;22.00;20.00;6.00
27143;PMS1003;14672;50.250;8.312;2023-01-25T08:57:29;19.00;19.00;7.50
27143;PMS1003;14672;50.250;8.312;2023-01-25T08:59:55;23.50;18.50;6.50
27143;PMS1003;14672;50.250;8.312;2023-01-25T09:02:21;21.33;19.33;6.00
27143;PMS1003;14672;50.250;8.312;2023-01-25T09:04:47;16.00;16.00;6.67
27143;PMS1003;14672;50.250;8.312;2023-01-25T09:07:12;18.67;14.00;6.00
27143;PMS1003;14672;50.250;8.312;2023-01-25T09:09:38;22.00;18.67;6.67
27143;PMS1003;14672;50.250;8.312;2023-01-25T09:12:04;19.00;17.00;6.00
27143;PMS1003;14672;50.250;8.312;2023-01-25T09:14:30;22.50;18.00;6.00
27143;PMS1003;14672;50.250;8.312;2023-01-25T09:16:56;15.33;14.00;5.33
27143;PMS1003;14672;50.250;8.312;2023-01-25T09:19:22;20.00;17.33;6.00
27143;PMS1003;14672;50.250;8.312;2023-01-25T09:21:48;13.33;12.00;4.67
27143;PMS1003;14672;50.250;8.312;2023-01-25T09:24:13;22.00;17.33;6.00
27143;PMS1003;14672;50.250;8.312;2023-01-25T09:26:40;16.00;16.00;4.67
27143;PMS1003;14672;50.250;8.312;2023-01-25T09:29:07;16.00;14.50;5.50
27143;PMS1003;14672;50.250;8.312;2023-01-25T09:31:35;20.50;17.00;4.00
27143;PMS1003;14672;50.250;8.312;2023-01-25T09:34:04;18.00;17.00;6.00
27143;PMS1003;14672;50.250;8.312;2023-01-25T09:36:30;12.00;11.50;3.00
27143;PMS1003;14672;50.250;8.312;2023-01-25T09:38:56;12.00;12.00;6.00
27143;PMS1003;14672;50.250;8.312;2023-01-25T09:41:39;16.67;16.00;4.67
27143;PMS1003;14672;50.250;8.312;2023-01-25T09:45:19;18.50;15.50;7.50
27143;PMS1003;14672;50.250;8.312;2023-01-25T09:50:13;21.00;19.00;7.50
27143;PMS1003;14672;50.250;8.312;2023-01-25T09:55:58;13.50;13.50;5.50
27143;PMS1003;14672;50.250;8.312;2023-01-25T09:58:42;20.00;18.00;7.00
27143;PMS1003;14672;50.250;8.312;2023-01-25T10:01:18;24.00;21.00;9.50
27143;PMS1003;14672;50.250;8.312;2023-01-25T10:04:20;20.00;17.00;6.50
27143;PMS1003;14672;50.250;8.312;2023-01-25T10:06:55;17.00;17.00;8.00
27143;PMS1003;14672;50.250;8.312;2023-01-25T10:12:27;22.50;22.00;8.50
27143;PMS1003;14672;50.250;8.312;2023-01-25T10:15:05;18.50;18.50;6.50
27143;PMS1003;14672;50.250;8.312;2023-01-25T10:17:44;23.50;22.50;10.00
27143;PMS1003;14672;50.250;8.312;2023-01-25T10:24:01;24.50;21.00;7.00
27143;PMS1003;14672;50.250;8.312;2023-01-25T10:26:28;19.00;18.50;8.00
27143;PMS1003;14672;50.250;8.312;2023-01-25T10:29:01;27.00;24.50;10.00
27143;PMS1003;14672;50.250;8.312;2023-01-25T10:37:08;24.50;23.50;9.50
27143;PMS1003;14672;50.250;8.312;2023-01-25T10:39:48;20.50;18.50;6.50
27143;PMS1003;14672;50.250;8.312;2023-01-25T10:42:29;22.00;21.00;9.00
27143;PMS1003;14672;50.250;8.312;2023-01-25T10:45:09;26.00;22.00;8.00
27143;PMS1003;14672;50.250;8.312;2023-01-25T10:47:43;19.00;17.50;7.50
27143;PMS1003;14672;50.250;8.312;2023-01-25T10:58:50;24.50;23.50;10.00
27143;PMS1003;14672;50.250;8.312;2023-01-25T11:01:30;22.00;19.00;7.00
27143;PMS1003;14672;50.250;8.312;2023-01-25T11:04:00;21.50;18.00;6.50
27143;PMS1003;14672;50.250;8.312;2023-01-25T11:11:55;24.00;23.50;10.00
27143;PMS1003;14672;50.250;8.312;2023-01-25T11:14:48;17.00;15.50;6.00
27143;PMS1003;14672;50.250;8.312;2023-01-25T11:17:27;17.00;16.50;5.50
27143;PMS1003;14672;50.250;8.312;2023-01-25T11:22:48;19.50;17.50;6.00
27143;PMS1003;14672;50.250;8.312;2023-01-25T11:30:55;23.50;21.50;9.00
27143;PMS1003;14672;50.250;8.312;2023-01-25T11:33:21;18.50;18.00;8.00
27143;PMS1003;14672;50.250;8.312;2023-01-25T11:36:12;25.50;18.50;6.00
27143;PMS1003;14672;50.250;8.312;2023-01-25T11:39:05;20.50;19.00;6.00
27143;PMS1003;14672;50.250;8.312;2023-01-25T11:56:12;18.00;16.50;8.00
27143;PMS1003;14672;50.250;8.312;2023-01-25T11:59:08;19.50;17.50;6.00
27143;PMS1003;14672;50.250;8.312;2023-01-25T12:16:40;24.00;22.50;7.50
27143;PMS1003;14672;50.250;8.312;2023-01-25T12:22:49;22.50;19.50;10.00
27143;PMS1003;14672;50.250;8.312;2023-01-25T12:28:19;22.50;21.50;9.00
27143;PMS1003;14672;50.250;8.312;2023-01-25T12:33:52;22.50;19.00;6.50
27143;PMS1003;14672;50.250;8.312;2023-01-25T12:39:13;18.00;16.50;6.00
27143;PMS1003;14672;50.250;8.312;2023-01-25T12:42:56;30.00;23.50;7.00
27143;PMS1003;14672;50.250;8.312;2023-01-25T12:45:12;26.00;23.50;9.00
27143;PMS1003;14672;50.250;8.312;2023-01-25T12:47:50;21.00;18.00;7.50
27143;PMS1003;14672;50.250;8.312;2023-01-25T12:50:34;18.50;17.50;8.00
27143;PMS1003;14672;50.250;8.312;2023-01-25T12:53:15;28.00;24.00;9.50
27143;PMS1003;14672;50.250;8.312;2023-01-25T12:55:59;25.00;23.50;10.50
27143;PMS1003;14672;50.250;8.312;2023-01-25T13:10:34;23.50;21.50;10.50
27143;PMS1003;14672;50.250;8.312;2023-01-25T13:13:22;24.50;23.50;10.50
27143;PMS1003;14672;50.250;8.312;2023-01-25T13:15:51;43.00;36.00;18.50
27143;PMS1003;14672;50.250;8.312;2023-01-25T13:20:54;44.00;41.00;20.50
27143;PMS1003;14672;50.250;8.312;2023-01-25T13:23:35;53.50;46.00;23.00
27143;PMS1003;14672;50.250;8.312;2023-01-25T13:28:55;32.00;29.00;11.00
27143;PMS1003;14672;50.250;8.312;2023-01-25T13:34:11;41.00;33.50;14.50
27143;PMS1003;14672;50.250;8.312;2023-01-25T13:36:58;34.50;33.50;15.00
27143;PMS1003;14672;50.250;8.312;2023-01-25T13:44:54;45.50;44.00;22.00
27143;PMS1003;14672;50.250;8.312;2023-01-25T13:47:29;61.50;57.50;29.00
27143;PMS1003;14672;50.250;8.312;2023-01-25T13:53:04;51.00;43.00;23.50
27143;PMS1003;14672;50.250;8.312;2023-01-25T13:55:48;99.20;74.80;43.60
27143;PMS1003;14672;50.250;8.312;2023-01-25T13:58:35;72.00;64.40;35.20
27143;PMS1003;14672;50.250;8.312;2023-01-25T14:01:15;56.00;50.50;27.50
27143;PMS1003;14672;50.250;8.312;2023-01-25T14:03:54;27.50;27.50;13.50
27143;PMS1003;14672;50.250;8.312;2023-01-25T14:06:26;22.50;20.00;9.00
27143;PMS1003;14672;50.250;8.312;2023-01-25T14:09:02;42.00;36.00;18.00
27143;PMS1003;14672;50.250;8.312;2023-01-25T14:11:34;31.00;27.50;12.50
27143;PMS1003;14672;50.250;8.312;2023-01-25T14:14:15;22.50;20.50;7.50
27143;PMS1003;14672;50.250;8.312;2023-01-25T14:16:44;35.50;33.00;16.00
27143;PMS1003;14672;50.250;8.312;2023-01-25T14:19:24;59.00;48.50;23.00
27143;PMS1003;14672;50.250;8.312;2023-01-25T14:30:19;24.00;22.50;8.00
27143;PMS1003;14672;50.250;8.312;2023-01-25T14:32:56;20.50;20.50;8.50
27143;PMS1003;14672;50.250;8.312;2023-01-25T14:35:42;29.50;24.50;12.00
27143;PMS1003;14672;50.250;8.312;2023-01-25T14:38:24;31.50;24.00;11.50
27143;PMS1003;14672;50.250;8.312;2023-01-25T14:40:59;36.50;31.00;15.50
27143;PMS1003;14672;50.250;8.312;2023-01-25T14:43:52;35.00;29.50;11.00
27143;PMS1003;14672;50.250;8.312;2023-01-25T14:46:25;27.00;23.00;10.00
27143;PMS1003;14672;50.250;8.312;2023-01-25T14:51:56;23.50;23.00;8.50
27143;PMS1003;14672;50.250;8.312;2023-01-25T14:54:52;24.50;23.50;9.50
27143;PMS1003;14672;50.250;8.312;2023-01-25T15:00:05;32.00;28.50;12.50
27143;PMS1003;14672;50.250;8.312;2023-01-25T15:05:24;32.00;31.00;14.00
27143;PMS1003;14672;50.250;8.312;2023-01-25T15:08:41;21.50;19.50;9.50
27143;PMS1003;14672;50.250;8.312;2023-01-25T15:10:57;19.50;19.50;6.50
27143;PMS1003;14672;50.250;8.312;2023-01-25T15:13:43;18.00;18.00;8.50
27143;PMS1003;14672;50.250;8.312;2023-01-25T15:16:09;32.00;26.00;12.00
27143;PMS1003;14672;50.250;8.312;2023-01-25T15:21:28;21.50;19.50;8.00
27143;PMS1003;14672;50.250;8.312;2023-01-25T15:23:56;23.00;23.00;10.00
27143;PMS1003;14672;50.250;8.312;2023-01-25T15:26:29;38.00;33.50;15.00
27143;PMS1003;14672;50.250;8.312;2023-01-25T15:28:58;57.50;49.00;23.50
27143;PMS1003;14672;50.250;8.312;2023-01-25T15:31:32;51.00;41.00;19.50
27143;PMS1003;14672;50.250;8.312;2023-01-25T15:34:01;34.00;26.50;12.00
27143;PMS1003;14672;50.250;8.312;2023-01-25T15:36:28;32.00;28.00;11.50
27143;PMS1003;14672;50.250;8.312;2023-01-25T15:38:56;43.00;37.50;18.50
27143;PMS1003;14672;50.250;8.312;2023-01-25T15:41:22;46.00;38.00;20.00
27143;PMS1003;14672;50.250;8.312;2023-01-25T15:43:48;36.67;32.67;16.00
27143;PMS1003;14672;50.250;8.312;2023-01-25T15:46:20;24.00;24.00;10.50
27143;PMS1003;14672;50.250;8.312;2023-01-25T15:48:52;28.00;24.50;8.50
27143;PMS1003;14672;50.250;8.312;2023-01-25T15:51:19;24.00;21.00;9.00
27143;PMS1003;14672;50.250;8.312;2023-01-25T15:53:46;23.50;22.50;9.50
27143;PMS1003;14672;50.250;8.312;2023-01-25T15:56:15;26.00;21.33;9.33
27143;PMS1003;14672;50.250;8.312;2023-01-25T15:58:44;31.50;26.50;13.50
27143;PMS1003;14672;50.250;8.312;2023-01-25T16:01:15;30.00;26.50;12.00
27143;PMS1003;14672;50.250;8.312;2023-01-25T16:03:41;34.00;28.00;12.00
27143;PMS1003;14672;50.250;8.312;2023-01-25T16:09:15;28.50;25.00;10.50
27143;PMS1003;14672;50.250;8.312;2023-01-25T16:11:42;31.50;26.00;10.00
27143;PMS1003;14672;50.250;8.312;2023-01-25T16:14:10;31.50;26.50;10.00
27143;PMS1003;14672;50.250;8.312;2023-01-25T16:16:38;42.00;33.00;15.50
27143;PMS1003;14672;50.250;8.312;2023-01-25T16:19:14;41.50;37.50;17.00
27143;PMS1003;14672;50.250;8.312;2023-01-25T16:21:46;31.50;28.50;11.00
27143;PMS1003;14672;50.250;8.312;2023-01-25T16:24:12;26.00;21.00;12.00
27143;PMS1003;14672;50.250;8.312;2023-01-25T16:26:43;30.00;26.00;10.50
27143;PMS1003;14672;50.250;8.312;2023-01-25T16:29:14;30.50;24.50;12.00
27143;PMS1003;14672;50.250;8.312;2023-01-25T16:31:40;56.00;47.50;27.00
27143;PMS1003;14672;50.250;8.312;2023-01-25T16:34:06;37.33;32.00;14.00
27143;PMS1003;14672;50.250;8.312;2023-01-25T16:36:32;52.00;46.67;25.33
27143;PMS1003;14672;50.250;8.312;2023-01-25T16:39:10;52.00;50.50;27.00